Time;durP1;ratioP1;P1;durP2;ratioP2;P2;SDS_P1;SDS_P2;PMS_P1;PMS_P2;Temp;Humidity;BMP_temperature;BMP_pressure;BME280_temperature;BME280_humidity;BME280_pressure;Samples;Min_cycle;Max_cycle;Signal;HPM_P1;HPM_P2
2022/06/13 00:00:31;;;;;;;7.63;7.00;;;;;;;20.58;68.02;94490.28;4981539;28;20233;-76
2022/06/13 00:02:58;;;;;;;6.83;6.33;;;;;;;20.89;67.00;94491.22;4975581;28;20212;-76
2022/06/13 00:05:23;;;;;;;7.40;6.80;;;;;;;20.89;66.73;94491.22;4994817;28;20467;-76
2022/06/13 00:07:49;;;;;;;8.20;7.50;;;;;;;21.10;66.43;94486.75;4984926;28;20441;-76
2022/06/13 00:10:14;;;;;;;7.00;6.40;;;;;;;21.18;66.16;94494.19;4982886;28;20236;-75
2022/06/13 00:12:41;;;;;;;7.03;6.53;;;;;;;21.00;66.51;94486.72;4974227;28;20616;-76
2022/06/13 00:15:10;;;;;;;10.47;6.43;;;;;;;21.18;66.10;94494.19;4976602;28;20229;-75
2022/06/13 00:17:35;;;;;;;6.63;6.13;;;;;;;21.11;66.00;94493.66;4978847;28;20437;-76
2022/06/13 00:20:01;;;;;;;6.53;5.93;;;;;;;20.86;66.49;94497.84;4976046;28;21110;-76
2022/06/13 00:22:26;;;;;;;7.00;6.50;;;;;;;21.01;66.25;94493.63;4975812;28;20189;-76
2022/06/13 00:24:52;;;;;;;8.23;7.30;;;;;;;21.11;65.71;94487.53;4978132;28;20464;-77
2022/06/13 00:27:17;;;;;;;8.00;7.30;;;;;;;20.84;66.89;94505.28;4987301;28;20181;-76
2022/06/13 00:29:47;;;;;;;7.20;6.60;;;;;;;20.92;67.02;94503.97;4975988;28;20262;-77
2022/06/13 00:32:13;;;;;;;7.50;6.90;;;;;;;20.52;68.17;94508.09;4977138;28;20736;-76
2022/06/13 00:34:39;;;;;;;8.20;7.43;;;;;;;20.74;67.31;94507.94;4974760;28;20443;-75
2022/06/13 00:37:04;;;;;;;6.97;6.07;;;;;;;20.86;66.79;94513.81;4975682;28;20416;-76
2022/06/13 00:39:30;;;;;;;7.90;7.20;;;;;;;21.00;66.67;94514.13;4975059;28;20266;-77
2022/06/13 00:41:55;;;;;;;7.10;6.50;;;;;;;21.05;66.26;94516.00;4975215;28;20229;-77
2022/06/13 00:44:24;;;;;;;7.93;7.27;;;;;;;21.14;65.89;94513.63;4980792;28;20205;-77
2022/06/13 00:46:50;;;;;;;7.50;6.80;;;;;;;21.02;66.18;94508.56;4995151;28;20173;-76
2022/06/13 00:49:21;;;;;;;9.80;7.00;;;;;;;21.03;66.20;94512.78;4983021;28;20467;-76
2022/06/13 00:51:51;;;;;;;8.90;6.80;;;;;;;20.75;67.18;94506.84;4975801;28;20428;-75
2022/06/13 00:54:19;;;;;;;7.60;6.80;;;;;;;20.79;66.84;94507.13;4977694;28;20456;-76
2022/06/13 00:56:49;;;;;;;5.87;5.47;;;;;;;21.03;66.45;94508.25;4987873;28;20472;-76
2022/06/13 00:59:20;;;;;;;6.63;6.00;;;;;;;21.25;65.10;94493.94;4980466;28;21284;-76
2022/06/13 01:01:46;;;;;;;7.97;6.60;;;;;;;21.08;65.49;94498.69;4986719;28;20471;-76
2022/06/13 01:04:11;;;;;;;8.30;7.20;;;;;;;20.88;66.10;94500.25;4869309;28;21268;-77
2022/06/13 01:06:43;;;;;;;6.67;6.10;;;;;;;21.04;65.77;94493.13;4981917;28;21254;-80
2022/06/13 01:09:11;;;;;;;8.90;8.00;;;;;;;20.94;65.88;94495.75;4991447;28;20362;-76
2022/06/13 01:11:45;;;;;;;8.43;6.90;;;;;;;21.20;65.00;94493.94;4975713;28;21032;-75
2022/06/13 01:14:21;;;;;;;7.80;7.10;;;;;;;21.13;65.60;94496.84;4976709;28;20459;-77
2022/06/13 01:17:15;;;;;;;7.50;6.73;;;;;;;21.12;65.61;94494.47;4977107;28;20503;-76
2022/06/13 01:20:02;;;;;;;6.87;6.30;;;;;;;21.07;65.46;94481.94;4969458;28;20447;-76
2022/06/13 01:22:45;;;;;;;7.07;6.40;;;;;;;20.92;66.19;94484.56;4985866;28;20448;-76
2022/06/13 01:25:17;;;;;;;7.80;7.20;;;;;;;21.41;64.52;94486.75;4973481;28;20488;-76
2022/06/13 01:28:07;;;;;;;7.63;6.93;;;;;;;21.18;65.18;94490.75;4979877;28;20452;-76
2022/06/13 01:31:06;;;;;;;7.40;6.70;;;;;;;21.13;65.24;94478.22;4983339;28;20495;-75
2022/06/13 01:33:49;;;;;;;6.80;6.20;;;;;;;21.06;65.48;94481.13;4980180;28;20444;-77
2022/06/13 01:36:59;;;;;;;7.57;6.97;;;;;;;20.86;66.01;94487.22;4980410;28;20417;-76
2022/06/13 01:39:38;;;;;;;6.73;6.20;;;;;;;21.03;65.21;94475.53;4935510;29;20455;-76
2022/06/13 01:42:11;;;;;;;6.60;6.10;;;;;;;21.01;65.40;94488.31;4933065;29;20427;-76
2022/06/13 01:44:58;;;;;;;7.30;6.73;;;;;;;20.99;65.61;94487.78;4957495;28;20472;-76
2022/06/13 01:47:35;;;;;;;10.10;6.87;;;;;;;20.89;65.67;94493.06;4972283;28;20447;-76
2022/06/13 01:50:15;;;;;;;7.20;6.60;;;;;;;20.92;65.33;94497.88;4978494;28;20493;-77
2022/06/13 01:52:50;;;;;;;7.40;6.80;;;;;;;21.07;65.08;94500.56;4973576;28;20952;-76
2022/06/13 01:55:25;;;;;;;7.03;6.53;;;;;;;21.07;65.25;94503.22;4983446;28;20931;-76
2022/06/13 01:58:09;;;;;;;6.57;6.07;;;;;;;21.04;65.20;94503.75;4972404;28;20477;-76
2022/06/13 02:00:36;;;;;;;7.00;6.10;;;;;;;21.09;65.47;94503.75;4973057;28;20417;-78
2022/06/13 02:03:19;;;;;;;6.67;6.10;;;;;;;20.96;65.31;94493.63;4973884;28;20437;-75
2022/06/13 02:05:52;;;;;;;6.20;5.80;;;;;;;20.90;65.26;94492.81;4983771;28;20475;-76
2022/06/13 02:08:26;;;;;;;7.70;7.00;;;;;;;20.96;65.64;94501.59;4974830;28;20437;-76
2022/06/13 02:11:32;;;;;;;7.23;6.50;;;;;;;20.83;65.90;94502.88;4975327;28;20412;-76
2022/06/13 02:14:13;;;;;;;7.13;6.30;;;;;;;20.83;65.93;94506.38;4953572;28;20522;-75
2022/06/13 02:16:57;;;;;;;7.00;6.40;;;;;;;20.93;65.63;94510.13;4983820;28;20501;-76
2022/06/13 02:19:34;;;;;;;7.50;6.90;;;;;;;21.02;65.39;94505.91;4969799;28;20444;-76
2022/06/13 02:22:07;;;;;;;10.87;7.53;;;;;;;20.73;65.91;94506.31;4987489;28;20430;-76
2022/06/13 02:24:40;;;;;;;7.00;6.30;;;;;;;20.70;66.17;94504.22;4983533;28;20479;-77
2022/06/13 02:27:08;;;;;;;7.30;6.70;;;;;;;20.79;66.19;94507.97;4978298;28;20512;-75
2022/06/13 02:29:49;;;;;;;10.97;7.53;;;;;;;20.88;65.54;94520.75;4972629;28;20514;-76
2022/06/13 02:32:19;;;;;;;7.53;6.83;;;;;;;20.94;65.77;94509.84;4986049;28;20417;-75
2022/06/13 02:34:50;;;;;;;7.80;7.20;;;;;;;21.06;64.83;94520.25;4978408;28;20492;-76
2022/06/13 02:37:21;;;;;;;8.00;7.20;;;;;;;20.80;65.94;94512.22;4959476;28;20452;-75
2022/06/13 02:39:58;;;;;;;9.30;8.40;;;;;;;20.80;66.00;94511.41;4992716;28;20993;-76
2022/06/13 02:42:39;;;;;;;8.23;7.63;;;;;;;20.86;65.61;94513.81;4979977;28;20841;-75
2022/06/13 02:45:15;;;;;;;8.17;7.30;;;;;;;20.62;66.57;94515.31;4984340;28;20962;-75
2022/06/13 02:47:51;;;;;;;9.20;7.93;;;;;;;20.80;66.19;94514.06;4974306;28;20456;-77
2022/06/13 02:50:26;;;;;;;7.23;6.50;;;;;;;20.81;66.09;94511.16;4983138;28;20415;-77
2022/06/13 02:53:29;;;;;;;9.63;8.40;;;;;;;20.85;66.21;94511.44;4977848;28;20447;-75
2022/06/13 02:56:19;;;;;;;7.80;7.13;;;;;;;20.78;66.45;94516.19;4985197;28;20455;-76
2022/06/13 02:58:44;;;;;;;7.57;7.03;;;;;;;20.88;65.54;94510.09;4974436;28;20467;-77
2022/06/13 03:01:16;;;;;;;7.70;7.10;;;;;;;20.96;65.76;94514.91;4977217;28;20437;-77
2022/06/13 03:04:06;;;;;;;8.17;7.47;;;;;;;20.84;65.99;94515.94;4990894;28;20212;-76
2022/06/13 03:06:46;;;;;;;7.00;6.33;;;;;;;20.77;66.27;94525.22;4974035;28;20443;-75
2022/06/13 03:09:23;;;;;;;13.10;8.10;;;;;;;20.97;65.62;94522.63;4978699;28;20484;-76
2022/06/13 03:15:11;;;;;;;7.60;7.00;;;;;;;21.20;64.97;94523.22;4972974;28;20528;-76
2022/06/13 03:17:46;;;;;;;8.10;7.40;;;;;;;21.18;64.43;94526.13;4973984;28;20445;-75
2022/06/13 03:21:10;;;;;;;6.73;6.20;;;;;;;21.05;65.10;94523.97;4989465;28;20435;-76
2022/06/13 03:23:44;;;;;;;8.30;7.60;;;;;;;21.18;64.95;94535.97;4963700;28;20548;-76
2022/06/13 03:26:16;;;;;;;9.20;8.40;;;;;;;21.41;64.20;94540.00;4986232;28;20487;-75
2022/06/13 03:28:50;;;;;;;7.93;7.13;;;;;;;21.42;64.31;94542.41;4986360;28;20539;-76
2022/06/13 03:31:28;;;;;;;8.47;7.10;;;;;;;21.60;63.01;94546.44;4976945;28;20429;-75
2022/06/13 03:33:59;;;;;;;8.27;7.40;;;;;;;21.45;63.55;94541.91;4979155;28;20451;-75
2022/06/13 03:36:34;;;;;;;8.17;7.00;;;;;;;21.35;64.22;94549.06;4982077;28;20959;-76
2022/06/13 03:39:16;;;;;;;8.67;7.90;;;;;;;21.36;64.20;94548.81;4977015;28;20528;-75
2022/06/13 03:41:48;;;;;;;8.63;7.83;;;;;;;21.54;64.22;94541.38;4977710;28;20789;-76
2022/06/13 03:44:19;;;;;;;7.87;7.17;;;;;;;21.71;64.06;94544.59;4970486;28;20476;-76
2022/06/13 03:46:52;;;;;;;9.03;8.23;;;;;;;21.71;63.88;94547.25;4983458;28;20432;-76
2022/06/13 03:49:26;;;;;;;8.60;7.90;;;;;;;21.58;63.82;94553.09;4975771;28;20465;-78
2022/06/13 03:51:58;;;;;;;10.20;9.13;;;;;;;21.54;64.20;94549.38;4980424;28;20569;-75
2022/06/13 03:54:34;;;;;;;8.53;7.73;;;;;;;21.82;63.38;94550.72;4974271;28;20463;-75
2022/06/13 03:57:03;;;;;;;9.00;8.13;;;;;;;21.78;63.82;94549.66;4971142;28;20459;-75
2022/06/13 03:59:35;;;;;;;8.37;7.53;;;;;;;21.89;63.73;94555.75;4976851;28;20970;-76
2022/06/13 04:02:09;;;;;;;9.07;8.27;;;;;;;21.94;63.23;94559.22;4979800;28;20421;-76
2022/06/13 04:04:45;;;;;;;9.47;8.47;;;;;;;22.10;63.04;94552.03;4979868;28;20463;-77
2022/06/13 04:07:11;;;;;;;9.70;8.90;;;;;;;22.12;62.93;94559.72;4976208;28;20416;-77
2022/06/13 04:09:40;;;;;;;8.27;7.57;;;;;;;22.34;62.22;94546.94;4977423;28;20517;-77
2022/06/13 04:12:15;;;;;;;9.50;8.60;;;;;;;22.07;63.10;94555.22;4973875;28;20721;-77
2022/06/13 04:15:12;;;;;;;10.50;8.23;;;;;;;22.40;62.43;94550.38;4976028;28;20511;-77
2022/06/13 04:18:14;;;;;;;9.07;8.33;;;;;;;22.55;62.20;94550.34;4975633;28;20525;-77
2022/06/13 04:21:00;;;;;;;9.50;8.70;;;;;;;22.69;62.03;94553.25;4919149;28;20435;-75
2022/06/13 04:23:28;;;;;;;10.50;9.10;;;;;;;22.53;62.22;94549.81;4982663;28;20452;-76
2022/06/13 04:26:03;;;;;;;11.73;8.10;;;;;;;22.75;61.58;94552.16;4975481;28;21020;-76
2022/06/13 04:28:40;;;;;;;8.73;7.93;;;;;;;22.92;61.47;94548.34;4975750;28;20444;-77
2022/06/13 04:31:07;;;;;;;8.70;7.90;;;;;;;22.89;61.72;94546.22;4978990;28;20804;-77
2022/06/13 04:33:48;;;;;;;10.10;9.10;;;;;;;22.83;61.98;94544.66;4976404;28;20453;-77
2022/06/13 04:36:15;;;;;;;9.87;8.87;;;;;;;22.92;61.25;94545.69;4976102;28;20428;-76
2022/06/13 04:38:45;;;;;;;9.87;8.83;;;;;;;22.55;62.47;94539.66;4974926;28;20503;-76
2022/06/13 04:41:14;;;;;;;9.20;8.50;;;;;;;22.46;63.00;94532.50;4976012;28;20456;-77
2022/06/13 04:43:43;;;;;;;10.17;9.00;;;;;;;22.63;62.74;94543.63;4974969;28;20480;-77
2022/06/13 04:46:13;;;;;;;8.80;8.00;;;;;;;22.82;61.79;94538.50;4970166;28;20453;-76
2022/06/13 04:48:41;;;;;;;8.17;7.57;;;;;;;22.59;62.60;94537.25;4975684;28;20455;-75
2022/06/13 04:51:10;;;;;;;9.53;8.80;;;;;;;23.11;61.34;94540.53;4978346;28;20480;-75
2022/06/13 04:54:02;;;;;;;8.20;7.50;;;;;;;23.06;61.77;94538.69;4970334;28;20928;-75
2022/06/13 04:56:29;;;;;;;8.93;8.23;;;;;;;23.06;61.49;94541.34;4970668;28;20456;-75
2022/06/13 04:58:57;;;;;;;8.30;7.60;;;;;;;23.30;61.03;94544.16;4971846;28;20613;-76
2022/06/13 05:01:31;;;;;;;10.57;9.77;;;;;;;23.33;60.83;94550.81;4973510;28;20932;-75
2022/06/13 05:04:02;;;;;;;9.80;9.00;;;;;;;23.73;59.58;94543.56;4976021;28;20443;-75
2022/06/13 05:06:32;;;;;;;10.00;9.17;;;;;;;23.80;59.46;94544.09;4973688;28;21192;-77
2022/06/13 05:09:02;;;;;;;9.10;8.30;;;;;;;23.83;59.69;94548.06;4977995;28;20441;-78
2022/06/13 05:11:34;;;;;;;8.63;7.93;;;;;;;23.34;60.88;94542.53;4968896;28;21530;-77
2022/06/13 05:14:09;;;;;;;9.13;8.23;;;;;;;23.27;61.05;94541.22;4967650;28;20444;-76
2022/06/13 05:16:46;;;;;;;9.37;8.60;;;;;;;23.12;61.98;94542.13;4971439;28;20483;-77
2022/06/13 05:19:23;;;;;;;8.07;7.37;;;;;;;22.94;62.88;94532.84;4970549;28;20980;-76
2022/06/13 05:21:51;;;;;;;8.43;7.63;;;;;;;23.14;62.33;94537.28;4971413;28;20420;-76
2022/06/13 05:24:32;;;;;;;10.00;9.20;;;;;;;23.44;61.24;94541.66;4972838;28;20565;-76
2022/06/13 05:26:57;;;;;;;10.40;9.30;;;;;;;23.50;61.65;94539.75;4970366;28;20432;-76
2022/06/13 05:29:25;;;;;;;8.40;7.70;;;;;;;23.00;62.91;94543.22;4971383;28;20433;-77
2022/06/13 05:31:52;;;;;;;9.90;8.10;;;;;;;23.14;62.70;94538.09;4971355;28;20298;-76
2022/06/13 05:34:29;;;;;;;9.47;8.57;;;;;;;23.67;61.05;94542.03;4965296;28;21059;-76
2022/06/13 05:36:55;;;;;;;8.60;7.80;;;;;;;22.93;62.94;94541.91;4970850;28;20436;-76
2022/06/13 05:39:21;;;;;;;9.17;8.37;;;;;;;23.42;61.75;94543.00;4966179;28;20441;-77
2022/06/13 05:41:46;;;;;;;8.50;7.60;;;;;;;22.91;63.47;94544.06;4970181;28;20298;-76
2022/06/13 05:44:12;;;;;;;8.13;7.50;;;;;;;22.77;62.99;94544.66;4968578;28;20353;-77
2022/06/13 05:46:38;;;;;;;8.80;8.10;;;;;;;23.66;60.45;94551.13;4976499;28;20202;-77
2022/06/13 05:49:04;;;;;;;8.70;7.80;;;;;;;23.49;61.16;94549.63;4965624;28;20186;-76
2022/06/13 05:51:30;;;;;;;9.30;8.07;;;;;;;23.38;61.50;94550.78;4971286;28;20963;-77
2022/06/13 05:53:58;;;;;;;8.53;7.80;;;;;;;23.63;60.79;94554.34;4969897;28;20468;-77
2022/06/13 05:56:25;;;;;;;8.30;7.57;;;;;;;24.05;59.70;94551.09;4971390;28;20237;-77
2022/06/13 05:58:51;;;;;;;10.00;8.30;;;;;;;23.70;60.33;94549.50;4975267;28;20442;-76
2022/06/13 06:01:16;;;;;;;7.23;6.63;;;;;;;23.56;60.37;94541.28;4968872;28;21180;-76
2022/06/13 06:03:44;;;;;;;9.20;8.30;;;;;;;24.06;58.80;94543.88;4984846;28;20193;-77
2022/06/13 06:06:20;;;;;;;8.77;7.33;;;;;;;24.37;58.24;94547.03;4976021;28;20206;-76
2022/06/13 06:08:46;;;;;;;7.43;6.83;;;;;;;24.05;59.32;94551.09;4971968;28;20443;-77
2022/06/13 06:11:11;;;;;;;7.87;7.27;;;;;;;24.39;58.18;94549.44;4974521;28;20472;-76
2022/06/13 06:13:37;;;;;;;7.67;7.17;;;;;;;23.82;59.62;94552.63;4969612;28;20202;-77
2022/06/13 06:16:02;;;;;;;8.13;7.33;;;;;;;24.31;58.31;94548.19;4971973;28;20189;-77
2022/06/13 06:18:29;;;;;;;9.37;7.20;;;;;;;23.90;59.21;94544.03;4970015;28;20280;-76
2022/06/13 06:20:55;;;;;;;8.23;7.60;;;;;;;24.19;59.06;94547.75;4969914;28;20187;-77
2022/06/13 06:23:21;;;;;;;7.93;7.13;;;;;;;25.21;55.42;94543.94;4976665;28;20452;-76
2022/06/13 06:25:47;;;;;;;7.53;6.93;;;;;;;25.52;54.22;94548.88;4971451;28;21012;-77
2022/06/13 06:28:19;;;;;;;7.30;6.60;;;;;;;25.82;53.34;94554.84;4978281;28;20186;-77
2022/06/13 06:30:45;;;;;;;7.17;6.67;;;;;;;25.54;53.96;94552.06;4976716;28;20437;-77
2022/06/13 06:33:11;;;;;;;6.93;6.23;;;;;;;25.33;54.22;94555.03;4971555;28;20470;-77
2022/06/13 06:35:37;;;;;;;7.00;6.43;;;;;;;24.96;55.83;94563.78;4970294;28;20218;-77
2022/06/13 06:38:03;;;;;;;7.47;6.63;;;;;;;25.18;54.92;94559.78;4965685;28;20688;-77
2022/06/13 06:40:29;;;;;;;8.43;7.73;;;;;;;24.72;55.82;94561.16;4968484;28;20635;-77
2022/06/13 06:42:55;;;;;;;9.10;8.40;;;;;;;25.00;55.38;94564.00;4966861;28;20269;-76
2022/06/13 06:45:23;;;;;;;8.77;8.07;;;;;;;25.91;52.56;94563.81;4966333;28;20567;-76
2022/06/13 06:47:49;;;;;;;8.20;7.50;;;;;;;26.08;51.90;94561.41;4965761;28;20449;-76
2022/06/13 06:50:17;;;;;;;9.07;8.40;;;;;;;25.47;53.94;94556.97;4966186;28;20488;-77
2022/06/13 06:52:43;;;;;;;8.37;7.57;;;;;;;25.49;53.25;94560.97;4964069;28;20205;-76
2022/06/13 07:00:45;;;;;;;9.07;8.23;;;;;;;27.61;48.75;94554.13;4973415;28;20434;-76
2022/06/13 07:03:10;;;;;;;8.20;7.57;;;;;;;26.26;50.65;94554.41;4971145;28;20433;-77
2022/06/13 07:05:36;;;;;;;6.80;6.20;;;;;;;26.52;49.58;94548.56;4968797;28;20469;-77
2022/06/13 07:08:01;;;;;;;7.03;6.53;;;;;;;26.03;50.21;94558.03;4971824;28;20185;-76
2022/06/13 07:10:26;;;;;;;8.83;6.93;;;;;;;25.63;51.78;94547.63;4972475;28;20184;-76
2022/06/13 07:12:52;;;;;;;7.00;6.30;;;;;;;24.87;53.45;94549.44;4971224;28;20413;-76
2022/06/13 07:15:18;;;;;;;7.60;6.90;;;;;;;25.30;52.50;94554.81;4973626;28;20182;-76
2022/06/13 07:17:44;;;;;;;7.30;6.57;;;;;;;26.00;51.22;94555.94;4975174;28;20715;-77
2022/06/13 07:20:12;;;;;;;8.77;7.97;;;;;;;26.32;50.44;94549.72;4971843;28;20525;-77
2022/06/13 07:22:44;;;;;;;7.60;6.30;;;;;;;27.25;47.71;94544.19;4969914;28;20182;-77
2022/06/13 07:25:15;;;;;;;7.27;6.73;;;;;;;27.13;47.99;94545.75;4969319;28;20472;-77
2022/06/13 07:27:40;;;;;;;6.17;5.43;;;;;;;26.80;48.33;94546.69;4970149;28;20440;-76
2022/06/13 07:30:06;;;;;;;6.10;5.70;;;;;;;26.34;49.55;94546.75;4971004;28;20418;-77
2022/06/13 07:32:32;;;;;;;9.80;5.87;;;;;;;26.59;48.19;94549.00;4965561;28;20189;-76
2022/06/13 07:34:58;;;;;;;9.00;8.30;;;;;;;27.48;47.05;94548.81;4968221;28;20523;-77
2022/06/13 07:40:10;;;;;;;5.57;5.10;;;;;;;28.26;45.41;94545.88;4964068;28;20448;-77
2022/06/13 07:42:39;;;;;;;7.33;4.83;;;;;;;27.78;45.54;94553.47;4969156;28;20444;-77
2022/06/13 07:45:05;;;;;;;5.33;4.90;;;;;;;27.76;45.13;94552.19;4971029;28;20461;-76
2022/06/13 07:47:32;;;;;;;5.90;5.30;;;;;;;27.66;45.75;94553.22;4971162;28;20422;-76
2022/06/13 07:49:57;;;;;;;4.63;4.23;;;;;;;26.77;47.96;94546.50;4969341;28;20414;-77
2022/06/13 07:52:22;;;;;;;7.73;5.83;;;;;;;27.34;46.67;94557.72;4967956;28;20433;-75
2022/06/13 07:54:48;;;;;;;5.37;5.07;;;;;;;28.20;44.66;94555.97;4970667;28;20178;-77
2022/06/13 07:57:13;;;;;;;4.90;4.60;;;;;;;27.71;45.47;94558.47;4967830;28;20177;-77
2022/06/13 07:59:40;;;;;;;5.13;4.73;;;;;;;28.37;44.38;94555.28;4972455;28;20257;-78
2022/06/13 08:02:18;;;;;;;5.27;4.97;;;;;;;27.75;45.16;94553.28;4969316;28;20174;-76
2022/06/13 08:04:44;;;;;;;6.03;5.47;;;;;;;27.78;45.76;94550.78;4964616;28;20471;-77
2022/06/13 08:07:11;;;;;;;5.73;5.23;;;;;;;27.54;46.02;94547.59;4974755;28;20422;-76
2022/06/13 08:09:38;;;;;;;6.07;5.57;;;;;;;27.58;46.05;94548.56;4971908;28;20437;-77
2022/06/13 08:12:06;;;;;;;6.03;5.63;;;;;;;28.24;44.96;94551.56;4974032;28;20462;-76
2022/06/13 08:14:31;;;;;;;6.17;5.70;;;;;;;28.70;44.41;94558.44;4971740;28;20429;-76
2022/06/13 08:16:57;;;;;;;7.07;6.37;;;;;;;29.08;43.42;94549.84;4970954;28;20423;-77
2022/06/13 08:19:22;;;;;;;6.13;5.63;;;;;;;29.68;41.70;94559.13;4972335;28;21002;-77
2022/06/13 08:21:47;;;;;;;7.77;7.17;;;;;;;29.66;40.57;94549.78;4972790;28;20183;-75
2022/06/13 08:24:13;;;;;;;6.70;5.60;;;;;;;29.61;40.86;94561.50;4971377;28;20205;-76
2022/06/13 08:26:38;;;;;;;6.20;4.83;;;;;;;29.77;40.78;94557.25;4971232;28;20178;-76
2022/06/13 08:29:05;;;;;;;5.87;5.33;;;;;;;29.94;40.22;94559.16;4974263;28;20227;-77
2022/06/13 08:31:31;;;;;;;7.63;6.60;;;;;;;29.96;39.81;94556.16;4973091;28;20185;-76
2022/06/13 08:33:57;;;;;;;6.03;5.40;;;;;;;30.16;39.64;94566.28;4968847;28;20448;-76
2022/06/13 08:36:22;;;;;;;5.60;5.20;;;;;;;31.07;37.82;94563.44;4969137;28;20440;-76
2022/06/13 08:38:48;;;;;;;5.07;4.67;;;;;;;30.84;38.16;94559.41;4963560;28;20280;-76
2022/06/13 08:41:22;;;;;;;5.10;4.70;;;;;;;30.31;38.43;94564.16;4963146;28;20907;-75
2022/06/13 08:44:06;;;;;;;5.37;5.07;;;;;;;30.78;37.69;94556.09;4970574;28;20329;-75
2022/06/13 08:46:47;;;;;;;7.57;5.10;;;;;;;30.54;37.83;94559.34;4961926;28;20763;-76
2022/06/13 08:49:32;;;;;;;4.87;4.47;;;;;;;30.05;38.37;94559.63;4965665;28;20555;-77
2022/06/13 08:52:16;;;;;;;4.70;4.43;;;;;;;30.55;37.68;94560.97;4975119;28;20464;-76
2022/06/13 08:54:45;;;;;;;5.00;4.60;;;;;;;31.26;36.36;94560.28;4955097;28;20437;-77
2022/06/13 08:57:11;;;;;;;5.60;5.00;;;;;;;31.17;36.43;94551.47;4966789;28;20568;-75
2022/06/13 08:59:42;;;;;;;4.70;4.30;;;;;;;31.06;36.86;94550.25;4971268;28;20433;-76
2022/06/13 09:02:28;;;;;;;5.00;4.50;;;;;;;31.01;37.02;94555.84;4971031;28;20417;-76
2022/06/13 09:05:17;;;;;;;4.70;4.43;;;;;;;32.10;35.36;94554.13;4974657;28;20476;-76
2022/06/13 09:07:54;;;;;;;6.80;4.87;;;;;;;32.15;34.91;94545.78;4967627;28;20521;-75
2022/06/13 09:10:31;;;;;;;5.30;5.00;;;;;;;31.65;36.15;94552.91;4971664;28;20427;-75
2022/06/13 09:13:12;;;;;;;4.60;4.30;;;;;;;31.23;37.52;94544.75;4950390;28;20536;-77
2022/06/13 09:15:54;;;;;;;4.63;4.23;;;;;;;32.24;35.07;94560.03;4952215;28;20974;-77
2022/06/13 09:18:28;;;;;;;5.10;4.70;;;;;;;32.53;34.26;94552.84;4971133;28;20504;-77
2022/06/13 09:21:03;;;;;;;4.83;4.53;;;;;;;31.55;36.21;94552.50;4971476;28;20511;-76
2022/06/13 09:23:39;;;;;;;5.00;4.70;;;;;;;31.39;36.56;94546.88;4969597;28;20453;-76
2022/06/13 09:26:22;;;;;;;5.53;4.90;;;;;;;31.08;36.99;94548.03;4969538;28;20515;-77
2022/06/13 09:29:00;;;;;;;5.60;5.20;;;;;;;30.65;37.35;94546.28;4971768;28;20496;-77
2022/06/13 09:31:48;;;;;;;5.03;4.60;;;;;;;31.69;36.03;94545.69;4971471;28;20440;-77
2022/06/13 09:34:13;;;;;;;4.90;4.30;;;;;;;32.10;35.19;94546.00;4962157;28;20457;-76
2022/06/13 09:36:52;;;;;;;5.73;4.50;;;;;;;32.01;34.96;94542.56;4970664;28;20896;-78
2022/06/13 09:39:18;;;;;;;5.00;4.60;;;;;;;31.55;35.30;94539.78;4964423;28;20635;-75
2022/06/13 09:42:21;;;;;;;6.20;5.20;;;;;;;32.26;34.68;94536.09;4968879;28;20469;-76
2022/06/13 09:45:09;;;;;;;5.93;5.43;;;;;;;32.33;34.65;94534.75;4971673;28;20480;-76
2022/06/13 09:47:55;;;;;;;4.90;4.60;;;;;;;32.59;34.33;94529.84;4969928;28;20453;-76
2022/06/13 09:50:32;;;;;;;4.67;4.27;;;;;;;32.56;34.11;94541.34;4966101;28;20452;-77
2022/06/13 09:53:15;;;;;;;4.57;4.20;;;;;;;32.74;33.69;94538.47;4968905;28;20417;-76
2022/06/13 09:55:47;;;;;;;5.37;4.90;;;;;;;32.09;34.25;94539.78;4968186;28;20512;-76
2022/06/13 09:58:49;;;;;;;5.60;5.10;;;;;;;32.29;34.23;94535.44;4962630;28;20438;-77
2022/06/13 10:01:33;;;;;;;5.37;5.07;;;;;;;31.44;34.90;94528.53;4963687;28;20443;-76
2022/06/13 10:04:08;;;;;;;6.30;5.20;;;;;;;30.57;37.70;94531.72;4969616;28;20490;-76
2022/06/13 10:06:36;;;;;;;7.77;4.60;;;;;;;31.19;36.80;94527.59;4949546;28;21002;-76
2022/06/13 10:09:18;;;;;;;6.67;6.17;;;;;;;32.13;35.15;94536.41;4967840;28;20535;-77
2022/06/13 10:11:46;;;;;;;5.53;5.13;;;;;;;31.15;36.18;94521.25;4961510;28;20500;-76
2022/06/13 10:14:42;;;;;;;4.60;4.30;;;;;;;31.37;36.63;94522.06;4965341;28;20444;-76
2022/06/13 10:17:34;;;;;;;5.83;5.17;;;;;;;31.25;36.14;94530.91;4967769;28;20459;-77
2022/06/13 10:20:32;;;;;;;5.17;4.70;;;;;;;31.30;35.79;94526.09;4970144;28;20425;-77
2022/06/13 10:23:38;;;;;;;5.27;4.87;;;;;;;30.53;36.69;94523.44;4967758;28;20432;-76
2022/06/13 10:26:12;;;;;;;5.10;4.70;;;;;;;31.07;36.04;94520.16;4966538;28;20494;-76
2022/06/13 10:29:17;;;;;;;4.83;4.47;;;;;;;31.85;35.34;94516.13;4971841;28;21013;-77
2022/06/13 10:32:02;;;;;;;4.60;4.20;;;;;;;32.32;33.54;94517.72;4963234;28;20429;-77
2022/06/13 10:34:42;;;;;;;4.80;4.50;;;;;;;30.91;36.45;94511.84;4967085;28;20456;-76
2022/06/13 10:37:32;;;;;;;5.40;4.93;;;;;;;32.02;35.03;94507.03;4967348;28;20488;-76
2022/06/13 10:40:00;;;;;;;4.87;4.27;;;;;;;30.87;37.84;94499.31;4966183;28;20444;-77
2022/06/13 10:42:29;;;;;;;4.97;4.67;;;;;;;32.61;33.87;94510.56;4968867;28;20545;-76
2022/06/13 10:44:55;;;;;;;7.37;4.90;;;;;;;32.95;33.14;94506.59;4965717;28;20862;-77
2022/06/13 10:47:26;;;;;;;5.67;5.27;;;;;;;32.98;32.76;94502.44;4966878;28;20421;-76
2022/06/13 10:50:02;;;;;;;5.33;4.67;;;;;;;33.52;31.87;94496.66;4964549;28;20201;-75
2022/06/13 10:52:32;;;;;;;6.40;5.90;;;;;;;33.52;32.02;94485.81;4965547;28;20440;-77
2022/06/13 10:55:08;;;;;;;5.70;5.30;;;;;;;33.30;32.39;94495.28;4963439;28;20448;-77
2022/06/13 10:57:42;;;;;;;5.73;5.17;;;;;;;32.97;32.19;94485.38;4967657;28;20437;-77
2022/06/13 11:00:21;;;;;;;5.80;5.43;;;;;;;32.54;33.10;94492.13;4969891;28;20440;-76
2022/06/13 11:02:48;;;;;;;6.00;5.60;;;;;;;33.52;31.38;94485.81;4969293;28;20536;-77
2022/06/13 11:05:19;;;;;;;5.10;4.70;;;;;;;34.12;31.01;94475.03;4966407;28;20518;-77
2022/06/13 11:07:55;;;;;;;4.37;4.07;;;;;;;32.18;32.89;94469.28;4967818;28;21145;-77
2022/06/13 11:10:35;;;;;;;6.10;5.70;;;;;;;31.12;34.58;94459.72;4967532;28;20567;-77
2022/06/13 11:13:05;;;;;;;6.00;5.60;;;;;;;30.48;35.97;94463.41;4949804;28;20465;-76
2022/06/13 11:24:15;;;;;;;6.20;5.80;;;;;;;31.99;34.42;94439.22;4967823;28;20540;-76
2022/06/13 11:29:29;;;;;;;5.97;5.57;;;;;;;32.43;32.68;94437.59;4969751;28;21423;-77
2022/06/13 11:32:18;;;;;;;6.80;6.30;;;;;;;32.53;33.51;94433.63;4971030;28;20461;-77
2022/06/13 11:34:43;;;;;;;6.40;6.07;;;;;;;33.52;31.76;94431.53;4971454;28;20209;-76
2022/06/13 11:37:29;;;;;;;6.50;6.07;;;;;;;34.06;30.78;94435.69;4970230;28;21216;-77
2022/06/13 11:39:54;;;;;;;6.20;5.80;;;;;;;32.92;32.76;94425.16;4972007;28;20205;-77
2022/06/13 11:42:26;;;;;;;6.70;6.10;;;;;;;33.81;31.55;94424.97;4973904;28;20429;-76
2022/06/13 11:47:49;;;;;;;7.20;6.70;;;;;;;32.66;33.41;94415.47;4965939;28;20496;-76
2022/06/13 11:50:25;;;;;;;6.80;6.30;;;;;;;33.64;32.24;94409.78;4972246;28;20429;-76
2022/06/13 11:55:49;;;;;;;6.30;5.90;;;;;;;33.91;30.70;94420.19;4972944;28;20456;-76
2022/06/13 11:58:20;;;;;;;6.70;6.20;;;;;;;34.46;30.02;94412.22;4972906;28;20420;-77
2022/06/13 12:01:14;;;;;;;6.03;5.53;;;;;;;34.95;30.17;94415.28;4970923;28;21055;-77
2022/06/13 12:03:47;;;;;;;6.47;6.07;;;;;;;36.00;28.82;94409.19;4974702;28;20482;-78
2022/06/13 12:06:18;;;;;;;6.67;6.13;;;;;;;34.97;30.00;94402.13;4970948;28;20581;-78
2022/06/13 12:08:49;;;;;;;6.87;6.37;;;;;;;33.28;32.42;94394.44;4965462;28;20425;-78
2022/06/13 12:11:14;;;;;;;7.70;6.10;;;;;;;33.96;31.72;94390.81;4974521;28;20648;-78
2022/06/13 12:13:43;;;;;;;6.07;5.60;;;;;;;34.43;31.18;94378.38;4972451;28;20520;-78
2022/06/13 12:16:38;;;;;;;6.67;6.20;;;;;;;34.34;31.56;94386.72;4977878;28;20343;-77
2022/06/13 12:19:15;;;;;;;7.40;6.80;;;;;;;34.23;30.66;94389.19;4971623;28;20521;-77
2022/06/13 12:22:00;;;;;;;6.23;5.83;;;;;;;31.94;34.64;94388.78;4975024;28;20843;-78
2022/06/13 12:24:53;;;;;;;7.90;7.33;;;;;;;32.47;33.44;94378.88;4969749;28;20472;-77
2022/06/13 12:27:31;;;;;;;6.13;5.73;;;;;;;32.36;33.92;94374.25;4972628;28;21112;-77
2022/06/13 12:30:11;;;;;;;7.17;6.73;;;;;;;33.00;32.55;94368.06;4961809;28;20432;-75
2022/06/13 12:33:05;;;;;;;5.73;5.33;;;;;;;31.77;34.72;94372.75;4965354;28;20759;-78